Terminal Aerodrome Forecast
Issued by NWS

Home | Current Version | Previous Version | Text Only | Print | Product List | Glossary Off
Versions: 1 2 3 4 5 6 7 8 9 10 11 12 13 14 15 16

000
FTUS42 KMHX 212327
TAFISO
TAF
KISO 212327Z 2200/2224 34012G17KT P6SM OVC015
     FM220200 36006KT P6SM SCT007 BKN015
     FM220500 34005KT P6SM OVC007
     FM221200 36008KT P6SM SCT030
      AMD LTD TO CLD VIS AND WIND=

USA.gov is the U.S. government's official web portal to all federal, state and local government web resources and services.